sensor_id;sensor_type;location;lat;lon;timestamp;P1;durP1;ratioP1;P2;durP2;ratioP2
13855;SDS011;6998;53.608;9.958;2022-07-18T00:00:04;3.05;;;2.53;;
13855;SDS011;6998;53.608;9.958;2022-07-18T00:02:33;2.80;;;2.30;;
13855;SDS011;6998;53.608;9.958;2022-07-18T00:05:00;3.33;;;2.67;;
13855;SDS011;6998;53.608;9.958;2022-07-18T00:07:27;2.92;;;2.58;;
13855;SDS011;6998;53.608;9.958;2022-07-18T00:09:53;2.85;;;2.40;;
13855;SDS011;6998;53.608;9.958;2022-07-18T00:12:20;3.03;;;2.53;;
13855;SDS011;6998;53.608;9.958;2022-07-18T00:14:47;3.58;;;2.40;;
13855;SDS011;6998;53.608;9.958;2022-07-18T00:17:15;2.70;;;2.20;;
13855;SDS011;6998;53.608;9.958;2022-07-18T00:19:42;2.63;;;2.20;;
13855;SDS011;6998;53.608;9.958;2022-07-18T00:22:08;2.50;;;2.30;;
13855;SDS011;6998;53.608;9.958;2022-07-18T00:24:35;5.80;;;2.40;;
13855;SDS011;6998;53.608;9.958;2022-07-18T00:27:03;2.78;;;2.25;;
13855;SDS011;6998;53.608;9.958;2022-07-18T00:29:32;4.10;;;3.00;;
13855;SDS011;6998;53.608;9.958;2022-07-18T00:32:01;3.20;;;2.40;;
13855;SDS011;6998;53.608;9.958;2022-07-18T00:34:29;2.75;;;2.42;;
13855;SDS011;6998;53.608;9.958;2022-07-18T00:36:56;3.75;;;2.47;;
13855;SDS011;6998;53.608;9.958;2022-07-18T00:39:23;2.65;;;2.42;;
13855;SDS011;6998;53.608;9.958;2022-07-18T00:41:50;2.60;;;2.40;;
13855;SDS011;6998;53.608;9.958;2022-07-18T00:44:17;3.38;;;2.30;;
13855;SDS011;6998;53.608;9.958;2022-07-18T00:46:45;2.67;;;2.42;;
13855;SDS011;6998;53.608;9.958;2022-07-18T00:49:14;3.42;;;2.55;;
13855;SDS011;6998;53.608;9.958;2022-07-18T00:51:42;4.40;;;2.50;;
13855;SDS011;6998;53.608;9.958;2022-07-18T00:54:09;3.03;;;2.40;;
13855;SDS011;6998;53.608;9.958;2022-07-18T00:56:36;3.80;;;2.90;;
13855;SDS011;6998;53.608;9.958;2022-07-18T00:59:02;5.40;;;2.85;;
13855;SDS011;6998;53.608;9.958;2022-07-18T01:01:29;2.90;;;2.67;;
13855;SDS011;6998;53.608;9.958;2022-07-18T01:04:13;4.82;;;3.20;;
13855;SDS011;6998;53.608;9.958;2022-07-18T01:06:44;3.78;;;2.80;;
13855;SDS011;6998;53.608;9.958;2022-07-18T01:09:11;3.10;;;2.60;;
13855;SDS011;6998;53.608;9.958;2022-07-18T01:11:38;3.00;;;2.70;;
13855;SDS011;6998;53.608;9.958;2022-07-18T01:14:06;3.97;;;2.72;;
13855;SDS011;6998;53.608;9.958;2022-07-18T01:16:33;3.22;;;2.50;;
13855;SDS011;6998;53.608;9.958;2022-07-18T01:19:00;3.08;;;2.72;;
13855;SDS011;6998;53.608;9.958;2022-07-18T01:21:29;3.20;;;2.60;;
13855;SDS011;6998;53.608;9.958;2022-07-18T01:23:56;3.10;;;2.80;;
13855;SDS011;6998;53.608;9.958;2022-07-18T01:26:23;2.67;;;2.47;;
13855;SDS011;6998;53.608;9.958;2022-07-18T01:28:50;3.15;;;2.47;;
13855;SDS011;6998;53.608;9.958;2022-07-18T01:31:17;3.50;;;2.63;;
13855;SDS011;6998;53.608;9.958;2022-07-18T01:33:44;3.72;;;2.25;;
13855;SDS011;6998;53.608;9.958;2022-07-18T01:36:10;2.65;;;2.45;;
13855;SDS011;6998;53.608;9.958;2022-07-18T01:38:38;3.47;;;2.65;;
13855;SDS011;6998;53.608;9.958;2022-07-18T01:41:05;3.08;;;2.60;;
13855;SDS011;6998;53.608;9.958;2022-07-18T01:43:32;4.95;;;2.60;;
13855;SDS011;6998;53.608;9.958;2022-07-18T01:46:02;3.05;;;2.35;;
13855;SDS011;6998;53.608;9.958;2022-07-18T01:48:29;2.53;;;2.33;;
13855;SDS011;6998;53.608;9.958;2022-07-18T01:50:56;3.55;;;2.63;;
13855;SDS011;6998;53.608;9.958;2022-07-18T01:53:23;4.00;;;2.45;;
13855;SDS011;6998;53.608;9.958;2022-07-18T01:55:51;2.83;;;2.53;;
13855;SDS011;6998;53.608;9.958;2022-07-18T01:58:18;3.58;;;2.70;;
13855;SDS011;6998;53.608;9.958;2022-07-18T02:00:45;2.85;;;2.53;;
13855;SDS011;6998;53.608;9.958;2022-07-18T02:03:12;3.25;;;2.50;;
13855;SDS011;6998;53.608;9.958;2022-07-18T02:05:38;2.53;;;2.33;;
13855;SDS011;6998;53.608;9.958;2022-07-18T02:08:05;3.40;;;2.60;;
13855;SDS011;6998;53.608;9.958;2022-07-18T02:10:32;2.72;;;2.45;;
13855;SDS011;6998;53.608;9.958;2022-07-18T02:13:00;2.42;;;2.22;;
13855;SDS011;6998;53.608;9.958;2022-07-18T02:15:26;4.30;;;2.67;;
13855;SDS011;6998;53.608;9.958;2022-07-18T02:17:53;3.97;;;2.55;;
13855;SDS011;6998;53.608;9.958;2022-07-18T02:20:20;2.65;;;2.38;;
13855;SDS011;6998;53.608;9.958;2022-07-18T02:22:46;3.80;;;2.55;;
13855;SDS011;6998;53.608;9.958;2022-07-18T02:25:13;2.92;;;2.60;;
13855;SDS011;6998;53.608;9.958;2022-07-18T02:27:40;2.90;;;2.60;;
13855;SDS011;6998;53.608;9.958;2022-07-18T02:30:09;3.83;;;3.20;;
13855;SDS011;6998;53.608;9.958;2022-07-18T02:32:37;3.00;;;2.70;;
13855;SDS011;6998;53.608;9.958;2022-07-18T02:35:05;3.05;;;2.58;;
13855;SDS011;6998;53.608;9.958;2022-07-18T02:37:32;2.95;;;2.50;;
13855;SDS011;6998;53.608;9.958;2022-07-18T02:40:00;5.15;;;2.80;;
13855;SDS011;6998;53.608;9.958;2022-07-18T02:42:26;3.38;;;2.90;;
13855;SDS011;6998;53.608;9.958;2022-07-18T02:44:53;2.58;;;2.38;;
13855;SDS011;6998;53.608;9.958;2022-07-18T02:47:21;3.08;;;2.63;;
13855;SDS011;6998;53.608;9.958;2022-07-18T02:49:48;4.30;;;2.90;;
13855;SDS011;6998;53.608;9.958;2022-07-18T02:52:15;3.40;;;2.80;;
13855;SDS011;6998;53.608;9.958;2022-07-18T02:54:42;3.63;;;2.63;;
13855;SDS011;6998;53.608;9.958;2022-07-18T02:57:09;4.70;;;2.85;;
13855;SDS011;6998;53.608;9.958;2022-07-18T02:59:35;2.70;;;2.50;;
13855;SDS011;6998;53.608;9.958;2022-07-18T03:02:02;4.40;;;2.80;;
13855;SDS011;6998;53.608;9.958;2022-07-18T03:04:31;2.72;;;2.50;;
13855;SDS011;6998;53.608;9.958;2022-07-18T03:06:58;3.60;;;2.80;;
13855;SDS011;6998;53.608;9.958;2022-07-18T03:09:24;3.55;;;2.70;;
13855;SDS011;6998;53.608;9.958;2022-07-18T03:11:52;3.22;;;2.90;;
13855;SDS011;6998;53.608;9.958;2022-07-18T03:14:19;6.22;;;3.28;;
13855;SDS011;6998;53.608;9.958;2022-07-18T03:16:46;4.25;;;3.00;;
13855;SDS011;6998;53.608;9.958;2022-07-18T03:19:13;4.47;;;3.22;;
13855;SDS011;6998;53.608;9.958;2022-07-18T03:21:41;4.25;;;2.90;;
13855;SDS011;6998;53.608;9.958;2022-07-18T03:24:08;3.35;;;3.05;;
13855;SDS011;6998;53.608;9.958;2022-07-18T03:26:36;3.15;;;2.45;;
13855;SDS011;6998;53.608;9.958;2022-07-18T03:29:02;3.30;;;3.00;;
13855;SDS011;6998;53.608;9.958;2022-07-18T03:31:29;3.67;;;2.90;;
13855;SDS011;6998;53.608;9.958;2022-07-18T03:33:56;7.60;;;3.25;;
13855;SDS011;6998;53.608;9.958;2022-07-18T03:36:23;3.40;;;3.10;;
13855;SDS011;6998;53.608;9.958;2022-07-18T03:38:51;4.57;;;3.55;;
13855;SDS011;6998;53.608;9.958;2022-07-18T03:41:17;5.55;;;3.75;;
13855;SDS011;6998;53.608;9.958;2022-07-18T03:43:44;3.85;;;3.28;;
13855;SDS011;6998;53.608;9.958;2022-07-18T03:46:11;3.30;;;2.97;;
13855;SDS011;6998;53.608;9.958;2022-07-18T03:48:38;5.63;;;3.30;;
13855;SDS011;6998;53.608;9.958;2022-07-18T03:51:04;4.82;;;3.33;;
13855;SDS011;6998;53.608;9.958;2022-07-18T03:53:32;5.15;;;3.15;;
13855;SDS011;6998;53.608;9.958;2022-07-18T03:56:00;4.15;;;3.28;;
13855;SDS011;6998;53.608;9.958;2022-07-18T03:58:27;4.22;;;3.50;;
13855;SDS011;6998;53.608;9.958;2022-07-18T04:00:54;4.53;;;3.13;;
13855;SDS011;6998;53.608;9.958;2022-07-18T04:03:21;3.45;;;2.67;;
13855;SDS011;6998;53.608;9.958;2022-07-18T04:05:48;3.72;;;3.10;;
13855;SDS011;6998;53.608;9.958;2022-07-18T04:08:14;5.47;;;3.53;;
13855;SDS011;6998;53.608;9.958;2022-07-18T04:10:41;3.40;;;2.90;;
13855;SDS011;6998;53.608;9.958;2022-07-18T04:13:10;3.03;;;2.72;;
13855;SDS011;6998;53.608;9.958;2022-07-18T04:15:37;4.60;;;3.05;;
13855;SDS011;6998;53.608;9.958;2022-07-18T04:18:04;3.92;;;3.10;;
13855;SDS011;6998;53.608;9.958;2022-07-18T04:20:32;4.57;;;3.15;;
13855;SDS011;6998;53.608;9.958;2022-07-18T04:23:01;4.35;;;3.22;;
13855;SDS011;6998;53.608;9.958;2022-07-18T04:25:32;3.60;;;3.30;;
13855;SDS011;6998;53.608;9.958;2022-07-18T04:28:00;4.35;;;3.38;;
13855;SDS011;6998;53.608;9.958;2022-07-18T04:30:29;3.65;;;3.30;;
13855;SDS011;6998;53.608;9.958;2022-07-18T04:32:56;5.35;;;3.15;;
13855;SDS011;6998;53.608;9.958;2022-07-18T04:35:24;4.32;;;3.45;;
13855;SDS011;6998;53.608;9.958;2022-07-18T04:37:51;3.97;;;3.33;;
13855;SDS011;6998;53.608;9.958;2022-07-18T04:40:18;4.07;;;3.20;;
13855;SDS011;6998;53.608;9.958;2022-07-18T04:42:45;5.53;;;3.55;;
13855;SDS011;6998;53.608;9.958;2022-07-18T04:45:12;4.13;;;3.22;;
13855;SDS011;6998;53.608;9.958;2022-07-18T04:47:40;4.38;;;3.20;;
13855;SDS011;6998;53.608;9.958;2022-07-18T04:50:07;6.05;;;3.80;;
13855;SDS011;6998;53.608;9.958;2022-07-18T04:52:38;4.13;;;3.17;;
13855;SDS011;6998;53.608;9.958;2022-07-18T04:55:05;4.75;;;3.70;;
13855;SDS011;6998;53.608;9.958;2022-07-18T04:57:34;4.85;;;3.40;;
13855;SDS011;6998;53.608;9.958;2022-07-18T05:00:01;5.13;;;3.38;;
13855;SDS011;6998;53.608;9.958;2022-07-18T05:02:29;4.93;;;3.88;;
13855;SDS011;6998;53.608;9.958;2022-07-18T05:04:57;5.05;;;3.50;;
13855;SDS011;6998;53.608;9.958;2022-07-18T05:07:24;3.42;;;3.13;;
13855;SDS011;6998;53.608;9.958;2022-07-18T05:09:50;4.30;;;3.90;;
13855;SDS011;6998;53.608;9.958;2022-07-18T05:12:17;4.47;;;3.67;;
13855;SDS011;6998;53.608;9.958;2022-07-18T05:14:48;5.90;;;3.75;;
13855;SDS011;6998;53.608;9.958;2022-07-18T05:17:15;6.75;;;3.60;;
13855;SDS011;6998;53.608;9.958;2022-07-18T05:19:42;4.00;;;3.60;;
13855;SDS011;6998;53.608;9.958;2022-07-18T05:22:10;4.03;;;3.58;;
13855;SDS011;6998;53.608;9.958;2022-07-18T05:24:37;4.75;;;3.83;;
13855;SDS011;6998;53.608;9.958;2022-07-18T05:27:03;4.90;;;3.78;;
13855;SDS011;6998;53.608;9.958;2022-07-18T05:29:30;5.03;;;3.75;;
13855;SDS011;6998;53.608;9.958;2022-07-18T05:31:57;5.15;;;3.70;;
13855;SDS011;6998;53.608;9.958;2022-07-18T05:34:25;5.70;;;3.78;;
13855;SDS011;6998;53.608;9.958;2022-07-18T05:36:51;4.40;;;3.63;;
13855;SDS011;6998;53.608;9.958;2022-07-18T05:39:20;4.35;;;3.75;;
13855;SDS011;6998;53.608;9.958;2022-07-18T05:41:46;4.47;;;3.70;;
13855;SDS011;6998;53.608;9.958;2022-07-18T05:44:13;4.40;;;3.72;;
13855;SDS011;6998;53.608;9.958;2022-07-18T05:46:40;4.93;;;3.58;;
13855;SDS011;6998;53.608;9.958;2022-07-18T05:49:07;5.43;;;3.80;;
13855;SDS011;6998;53.608;9.958;2022-07-18T05:51:33;7.28;;;3.72;;
13855;SDS011;6998;53.608;9.958;2022-07-18T05:54:00;6.13;;;4.35;;
13855;SDS011;6998;53.608;9.958;2022-07-18T05:56:28;9.07;;;4.47;;
13855;SDS011;6998;53.608;9.958;2022-07-18T05:58:55;7.10;;;4.65;;
13855;SDS011;6998;53.608;9.958;2022-07-18T06:01:22;5.25;;;4.20;;
13855;SDS011;6998;53.608;9.958;2022-07-18T06:03:48;6.53;;;4.55;;
13855;SDS011;6998;53.608;9.958;2022-07-18T06:06:15;5.05;;;4.07;;
13855;SDS011;6998;53.608;9.958;2022-07-18T06:08:44;8.55;;;4.78;;
13855;SDS011;6998;53.608;9.958;2022-07-18T06:11:11;5.82;;;4.78;;
13855;SDS011;6998;53.608;9.958;2022-07-18T06:13:39;6.13;;;4.97;;
13855;SDS011;6998;53.608;9.958;2022-07-18T06:16:07;5.85;;;4.80;;
13855;SDS011;6998;53.608;9.958;2022-07-18T06:18:35;7.50;;;5.80;;
13855;SDS011;6998;53.608;9.958;2022-07-18T06:21:02;10.10;;;5.70;;
13855;SDS011;6998;53.608;9.958;2022-07-18T06:23:29;7.90;;;5.60;;
13855;SDS011;6998;53.608;9.958;2022-07-18T06:25:56;6.70;;;5.20;;
13855;SDS011;6998;53.608;9.958;2022-07-18T06:28:24;10.40;;;5.53;;
13855;SDS011;6998;53.608;9.958;2022-07-18T06:30:52;5.90;;;5.18;;
13855;SDS011;6998;53.608;9.958;2022-07-18T06:33:19;8.57;;;5.10;;
13855;SDS011;6998;53.608;9.958;2022-07-18T06:35:46;9.25;;;5.75;;
13855;SDS011;6998;53.608;9.958;2022-07-18T06:38:12;7.55;;;5.65;;
13855;SDS011;6998;53.608;9.958;2022-07-18T06:40:39;7.75;;;5.55;;
13855;SDS011;6998;53.608;9.958;2022-07-18T06:43:06;7.28;;;5.57;;
13855;SDS011;6998;53.608;9.958;2022-07-18T06:45:33;9.90;;;5.88;;
13855;SDS011;6998;53.608;9.958;2022-07-18T06:48:01;7.75;;;5.85;;
13855;SDS011;6998;53.608;9.958;2022-07-18T06:50:28;9.20;;;5.63;;
13855;SDS011;6998;53.608;9.958;2022-07-18T06:52:55;7.95;;;5.85;;
13855;SDS011;6998;53.608;9.958;2022-07-18T06:55:22;9.73;;;5.95;;
13855;SDS011;6998;53.608;9.958;2022-07-18T06:57:49;8.13;;;5.97;;
13855;SDS011;6998;53.608;9.958;2022-07-18T07:00:15;7.65;;;6.00;;
13855;SDS011;6998;53.608;9.958;2022-07-18T07:02:43;8.35;;;6.30;;
13855;SDS011;6998;53.608;9.958;2022-07-18T07:05:13;8.07;;;6.10;;
13855;SDS011;6998;53.608;9.958;2022-07-18T07:07:40;7.95;;;5.75;;
13855;SDS011;6998;53.608;9.958;2022-07-18T07:10:07;7.55;;;6.25;;
13855;SDS011;6998;53.608;9.958;2022-07-18T07:12:37;7.57;;;6.38;;
13855;SDS011;6998;53.608;9.958;2022-07-18T07:15:06;9.93;;;5.88;;
13855;SDS011;6998;53.608;9.958;2022-07-18T07:17:33;8.55;;;5.72;;
13855;SDS011;6998;53.608;9.958;2022-07-18T07:20:00;7.82;;;6.20;;
13855;SDS011;6998;53.608;9.958;2022-07-18T07:22:28;10.00;;;6.68;;
13855;SDS011;6998;53.608;9.958;2022-07-18T07:24:55;8.48;;;6.20;;
13855;SDS011;6998;53.608;9.958;2022-07-18T07:27:22;8.95;;;6.45;;
13855;SDS011;6998;53.608;9.958;2022-07-18T07:29:48;9.65;;;6.20;;
13855;SDS011;6998;53.608;9.958;2022-07-18T07:32:15;11.05;;;7.15;;
13855;SDS011;6998;53.608;9.958;2022-07-18T07:34:42;8.55;;;6.65;;
13855;SDS011;6998;53.608;9.958;2022-07-18T07:37:08;9.15;;;6.32;;
13855;SDS011;6998;53.608;9.958;2022-07-18T07:39:36;8.00;;;6.25;;
13855;SDS011;6998;53.608;9.958;2022-07-18T07:42:03;7.55;;;6.32;;
13855;SDS011;6998;53.608;9.958;2022-07-18T07:44:30;9.52;;;6.50;;
13855;SDS011;6998;53.608;9.958;2022-07-18T07:46:57;8.98;;;6.22;;
13855;SDS011;6998;53.608;9.958;2022-07-18T07:49:24;11.02;;;6.57;;
13855;SDS011;6998;53.608;9.958;2022-07-18T07:51:51;8.68;;;6.00;;
13855;SDS011;6998;53.608;9.958;2022-07-18T07:54:17;10.10;;;6.45;;
13855;SDS011;6998;53.608;9.958;2022-07-18T07:56:46;10.63;;;6.40;;
13855;SDS011;6998;53.608;9.958;2022-07-18T07:59:12;9.68;;;6.18;;
13855;SDS011;6998;53.608;9.958;2022-07-18T08:01:39;7.47;;;6.25;;
13855;SDS011;6998;53.608;9.958;2022-07-18T08:04:06;9.63;;;6.05;;
13855;SDS011;6998;53.608;9.958;2022-07-18T08:06:32;6.32;;;5.63;;
13855;SDS011;6998;53.608;9.958;2022-07-18T08:08:59;8.80;;;6.07;;
13855;SDS011;6998;53.608;9.958;2022-07-18T08:11:26;6.97;;;6.07;;
13855;SDS011;6998;53.608;9.958;2022-07-18T08:13:54;7.50;;;5.97;;
13855;SDS011;6998;53.608;9.958;2022-07-18T08:16:22;8.52;;;6.20;;
13855;SDS011;6998;53.608;9.958;2022-07-18T08:18:48;6.30;;;5.70;;
13855;SDS011;6998;53.608;9.958;2022-07-18T08:21:15;8.43;;;5.45;;
13855;SDS011;6998;53.608;9.958;2022-07-18T08:23:42;5.78;;;4.88;;
13855;SDS011;6998;53.608;9.958;2022-07-18T08:26:10;6.13;;;4.43;;
13855;SDS011;6998;53.608;9.958;2022-07-18T08:28:37;4.50;;;3.90;;
13855;SDS011;6998;53.608;9.958;2022-07-18T08:31:05;7.20;;;4.18;;
13855;SDS011;6998;53.608;9.958;2022-07-18T08:33:32;4.63;;;4.07;;
13855;SDS011;6998;53.608;9.958;2022-07-18T08:35:59;6.15;;;4.90;;
13855;SDS011;6998;53.608;9.958;2022-07-18T08:38:25;5.15;;;4.60;;
13855;SDS011;6998;53.608;9.958;2022-07-18T08:40:52;6.97;;;5.57;;
13855;SDS011;6998;53.608;9.958;2022-07-18T08:43:20;5.88;;;4.97;;
13855;SDS011;6998;53.608;9.958;2022-07-18T08:45:47;7.13;;;5.35;;
13855;SDS011;6998;53.608;9.958;2022-07-18T08:48:15;5.93;;;5.20;;
13855;SDS011;6998;53.608;9.958;2022-07-18T08:50:43;7.53;;;5.68;;
13855;SDS011;6998;53.608;9.958;2022-07-18T08:53:11;5.63;;;5.03;;
13855;SDS011;6998;53.608;9.958;2022-07-18T08:55:38;6.47;;;4.60;;
13855;SDS011;6998;53.608;9.958;2022-07-18T08:58:05;6.40;;;4.93;;
13855;SDS011;6998;53.608;9.958;2022-07-18T09:00:33;5.88;;;4.97;;
13855;SDS011;6998;53.608;9.958;2022-07-18T09:03:00;5.97;;;4.45;;
13855;SDS011;6998;53.608;9.958;2022-07-18T09:05:31;5.78;;;4.30;;
13855;SDS011;6998;53.608;9.958;2022-07-18T09:08:07;5.80;;;4.30;;
13855;SDS011;6998;53.608;9.958;2022-07-18T09:10:41;5.88;;;3.72;;
13855;SDS011;6998;53.608;9.958;2022-07-18T09:13:16;4.57;;;3.90;;
13855;SDS011;6998;53.608;9.958;2022-07-18T09:15:59;7.13;;;4.25;;
13855;SDS011;6998;53.608;9.958;2022-07-18T09:18:27;5.22;;;4.30;;
13855;SDS011;6998;53.608;9.958;2022-07-18T09:20:59;8.57;;;4.18;;
13855;SDS011;6998;53.608;9.958;2022-07-18T09:23:28;7.03;;;4.00;;
13855;SDS011;6998;53.608;9.958;2022-07-18T09:25:56;5.93;;;4.13;;
13855;SDS011;6998;53.608;9.958;2022-07-18T09:28:24;4.05;;;3.42;;
13855;SDS011;6998;53.608;9.958;2022-07-18T09:30:51;6.38;;;4.25;;
13855;SDS011;6998;53.608;9.958;2022-07-18T09:33:18;4.82;;;4.22;;
13855;SDS011;6998;53.608;9.958;2022-07-18T09:35:46;7.13;;;3.90;;
13855;SDS011;6998;53.608;9.958;2022-07-18T09:38:17;4.90;;;3.85;;
13855;SDS011;6998;53.608;9.958;2022-07-18T09:40:46;4.85;;;4.07;;
13855;SDS011;6998;53.608;9.958;2022-07-18T09:43:15;5.07;;;3.97;;
13855;SDS011;6998;53.608;9.958;2022-07-18T09:45:45;4.53;;;4.10;;
13855;SDS011;6998;53.608;9.958;2022-07-18T09:48:14;4.05;;;3.60;;
13855;SDS011;6998;53.608;9.958;2022-07-18T09:50:49;4.60;;;3.17;;
13855;SDS011;6998;53.608;9.958;2022-07-18T09:53:19;4.97;;;3.80;;
13855;SDS011;6998;53.608;9.958;2022-07-18T09:55:50;5.18;;;3.25;;
13855;SDS011;6998;53.608;9.958;2022-07-18T09:58:18;4.53;;;3.78;;
13855;SDS011;6998;53.608;9.958;2022-07-18T10:00:46;3.60;;;3.30;;
13855;SDS011;6998;53.608;9.958;2022-07-18T10:03:14;3.53;;;3.22;;
13855;SDS011;6998;53.608;9.958;2022-07-18T10:05:42;4.60;;;3.65;;
13855;SDS011;6998;53.608;9.958;2022-07-18T10:08:11;4.68;;;3.65;;
13855;SDS011;6998;53.608;9.958;2022-07-18T10:10:41;3.65;;;3.30;;
13855;SDS011;6998;53.608;9.958;2022-07-18T10:13:09;3.88;;;3.40;;
13855;SDS011;6998;53.608;9.958;2022-07-18T10:15:37;4.15;;;3.60;;
13855;SDS011;6998;53.608;9.958;2022-07-18T10:18:06;4.63;;;3.58;;
13855;SDS011;6998;53.608;9.958;2022-07-18T10:20:35;5.43;;;3.58;;
13855;SDS011;6998;53.608;9.958;2022-07-18T10:23:13;4.15;;;3.75;;
13855;SDS011;6998;53.608;9.958;2022-07-18T10:25:43;5.05;;;3.53;;
13855;SDS011;6998;53.608;9.958;2022-07-18T10:28:11;3.78;;;3.47;;
13855;SDS011;6998;53.608;9.958;2022-07-18T10:30:43;4.68;;;3.25;;
13855;SDS011;6998;53.608;9.958;2022-07-18T10:36:05;4.18;;;3.78;;
13855;SDS011;6998;53.608;9.958;2022-07-18T10:38:33;5.65;;;3.22;;
13855;SDS011;6998;53.608;9.958;2022-07-18T10:41:02;5.40;;;3.40;;
13855;SDS011;6998;53.608;9.958;2022-07-18T10:43:31;3.53;;;3.15;;
13855;SDS011;6998;53.608;9.958;2022-07-18T10:45:59;4.45;;;3.58;;
13855;SDS011;6998;53.608;9.958;2022-07-18T10:51:32;4.72;;;4.22;;
13855;SDS011;6998;53.608;9.958;2022-07-18T10:54:07;5.05;;;4.43;;
13855;SDS011;6998;53.608;9.958;2022-07-18T10:59:35;5.68;;;4.00;;
13855;SDS011;6998;53.608;9.958;2022-07-18T11:02:06;6.38;;;3.95;;
13855;SDS011;6998;53.608;9.958;2022-07-18T11:04:34;5.35;;;4.32;;
13855;SDS011;6998;53.608;9.958;2022-07-18T11:07:03;5.35;;;3.85;;
13855;SDS011;6998;53.608;9.958;2022-07-18T11:09:37;4.38;;;3.92;;
13855;SDS011;6998;53.608;9.958;2022-07-18T11:12:20;4.10;;;3.70;;
13855;SDS011;6998;53.608;9.958;2022-07-18T11:15:05;5.13;;;3.90;;
13855;SDS011;6998;53.608;9.958;2022-07-18T11:20:24;4.32;;;3.92;;
13855;SDS011;6998;53.608;9.958;2022-07-18T11:22:52;4.53;;;3.78;;
13855;SDS011;6998;53.608;9.958;2022-07-18T11:25:20;4.15;;;3.75;;
13855;SDS011;6998;53.608;9.958;2022-07-18T11:27:52;4.57;;;4.00;;
13855;SDS011;6998;53.608;9.958;2022-07-18T11:30:19;4.18;;;3.78;;
13855;SDS011;6998;53.608;9.958;2022-07-18T11:32:47;6.43;;;4.00;;
13855;SDS011;6998;53.608;9.958;2022-07-18T11:35:14;5.47;;;3.80;;
13855;SDS011;6998;53.608;9.958;2022-07-18T11:37:46;4.50;;;3.97;;
13855;SDS011;6998;53.608;9.958;2022-07-18T11:40:13;5.35;;;4.32;;
13855;SDS011;6998;53.608;9.958;2022-07-18T11:42:41;5.00;;;4.53;;
13855;SDS011;6998;53.608;9.958;2022-07-18T11:45:11;6.03;;;4.93;;
13855;SDS011;6998;53.608;9.958;2022-07-18T11:47:39;5.47;;;4.97;;
13855;SDS011;6998;53.608;9.958;2022-07-18T11:50:13;4.88;;;4.40;;
13855;SDS011;6998;53.608;9.958;2022-07-18T11:52:40;5.07;;;4.63;;
13855;SDS011;6998;53.608;9.958;2022-07-18T11:55:08;5.05;;;4.45;;
13855;SDS011;6998;53.608;9.958;2022-07-18T11:57:35;6.05;;;4.65;;
13855;SDS011;6998;53.608;9.958;2022-07-18T12:00:14;4.80;;;4.30;;
13855;SDS011;6998;53.608;9.958;2022-07-18T12:02:42;7.35;;;4.75;;
13855;SDS011;6998;53.608;9.958;2022-07-18T12:05:09;5.63;;;4.45;;
13855;SDS011;6998;53.608;9.958;2022-07-18T12:07:36;4.55;;;4.07;;
13855;SDS011;6998;53.608;9.958;2022-07-18T12:10:14;5.25;;;4.75;;
13855;SDS011;6998;53.608;9.958;2022-07-18T12:12:42;5.03;;;4.40;;
13855;SDS011;6998;53.608;9.958;2022-07-18T12:15:09;4.70;;;4.22;;
13855;SDS011;6998;53.608;9.958;2022-07-18T12:17:44;4.70;;;4.13;;
13855;SDS011;6998;53.608;9.958;2022-07-18T12:20:13;5.30;;;4.50;;
13855;SDS011;6998;53.608;9.958;2022-07-18T12:23:02;4.47;;;4.07;;
13855;SDS011;6998;53.608;9.958;2022-07-18T12:28:20;6.85;;;4.32;;
13855;SDS011;6998;53.608;9.958;2022-07-18T12:30:47;7.63;;;4.65;;
13855;SDS011;6998;53.608;9.958;2022-07-18T12:33:15;4.38;;;3.97;;
13855;SDS011;6998;53.608;9.958;2022-07-18T12:35:42;5.57;;;3.67;;
13855;SDS011;6998;53.608;9.958;2022-07-18T12:38:10;3.80;;;3.50;;
13855;SDS011;6998;53.608;9.958;2022-07-18T12:40:40;4.32;;;3.92;;
13855;SDS011;6998;53.608;9.958;2022-07-18T12:43:10;4.30;;;3.90;;
13855;SDS011;6998;53.608;9.958;2022-07-18T12:45:38;4.18;;;3.60;;
13855;SDS011;6998;53.608;9.958;2022-07-18T12:48:05;3.60;;;3.20;;
13855;SDS011;6998;53.608;9.958;2022-07-18T12:50:35;3.78;;;3.38;;
13855;SDS011;6998;53.608;9.958;2022-07-18T12:53:03;4.07;;;3.15;;
13855;SDS011;6998;53.608;9.958;2022-07-18T12:55:30;3.40;;;2.80;;
13855;SDS011;6998;53.608;9.958;2022-07-18T12:57:57;3.25;;;2.95;;
13855;SDS011;6998;53.608;9.958;2022-07-18T13:00:25;4.15;;;3.20;;
13855;SDS011;6998;53.608;9.958;2022-07-18T13:02:52;4.47;;;3.30;;
13855;SDS011;6998;53.608;9.958;2022-07-18T13:05:20;3.30;;;3.00;;
13855;SDS011;6998;53.608;9.958;2022-07-18T13:07:49;2.80;;;2.60;;
13855;SDS011;6998;53.608;9.958;2022-07-18T13:10:15;3.55;;;3.05;;
13855;SDS011;6998;53.608;9.958;2022-07-18T13:12:42;3.00;;;2.70;;
13855;SDS011;6998;53.608;9.958;2022-07-18T13:15:09;3.08;;;2.78;;
13855;SDS011;6998;53.608;9.958;2022-07-18T13:17:36;3.00;;;2.70;;
13855;SDS011;6998;53.608;9.958;2022-07-18T13:20:03;4.07;;;2.83;;
13855;SDS011;6998;53.608;9.958;2022-07-18T13:22:30;3.67;;;2.65;;
13855;SDS011;6998;53.608;9.958;2022-07-18T13:25:04;2.75;;;2.55;;
13855;SDS011;6998;53.608;9.958;2022-07-18T13:27:31;2.55;;;2.35;;
13855;SDS011;6998;53.608;9.958;2022-07-18T13:29:58;6.68;;;2.70;;
13855;SDS011;6998;53.608;9.958;2022-07-18T13:32:25;3.15;;;2.85;;
13855;SDS011;6998;53.608;9.958;2022-07-18T13:34:52;3.22;;;2.60;;
13855;SDS011;6998;53.608;9.958;2022-07-18T13:37:19;3.05;;;2.75;;
13855;SDS011;6998;53.608;9.958;2022-07-18T13:39:46;4.18;;;2.60;;
13855;SDS011;6998;53.608;9.958;2022-07-18T13:42:14;3.70;;;2.72;;
13855;SDS011;6998;53.608;9.958;2022-07-18T13:44:41;3.72;;;2.70;;
13855;SDS011;6998;53.608;9.958;2022-07-18T13:47:10;4.90;;;2.80;;
13855;SDS011;6998;53.608;9.958;2022-07-18T13:49:36;2.90;;;2.60;;
13855;SDS011;6998;53.608;9.958;2022-07-18T13:52:03;3.22;;;2.75;;
13855;SDS011;6998;53.608;9.958;2022-07-18T13:54:30;2.40;;;2.20;;
13855;SDS011;6998;53.608;9.958;2022-07-18T13:56:57;2.60;;;2.40;;
13855;SDS011;6998;53.608;9.958;2022-07-18T13:59:25;3.55;;;3.10;;
13855;SDS011;6998;53.608;9.958;2022-07-18T14:01:52;6.07;;;3.08;;
13855;SDS011;6998;53.608;9.958;2022-07-18T14:04:20;3.35;;;3.05;;
13855;SDS011;6998;53.608;9.958;2022-07-18T14:06:47;3.03;;;2.80;;
13855;SDS011;6998;53.608;9.958;2022-07-18T14:09:14;5.30;;;2.78;;
13855;SDS011;6998;53.608;9.958;2022-07-18T14:11:40;2.88;;;2.50;;
13855;SDS011;6998;53.608;9.958;2022-07-18T14:14:07;2.80;;;2.60;;
13855;SDS011;6998;53.608;9.958;2022-07-18T14:16:35;2.90;;;2.60;;
13855;SDS011;6998;53.608;9.958;2022-07-18T14:19:02;2.63;;;2.42;;
13855;SDS011;6998;53.608;9.958;2022-07-18T14:21:30;3.15;;;2.85;;
13855;SDS011;6998;53.608;9.958;2022-07-18T14:23:56;3.83;;;3.13;;
13855;SDS011;6998;53.608;9.958;2022-07-18T14:26:23;3.30;;;2.70;;
13855;SDS011;6998;53.608;9.958;2022-07-18T14:28:50;4.03;;;3.00;;
13855;SDS011;6998;53.608;9.958;2022-07-18T14:31:17;3.17;;;2.78;;
13855;SDS011;6998;53.608;9.958;2022-07-18T14:33:45;2.80;;;2.50;;
13855;SDS011;6998;53.608;9.958;2022-07-18T14:36:13;2.85;;;2.65;;
13855;SDS011;6998;53.608;9.958;2022-07-18T14:38:39;3.53;;;2.85;;
13855;SDS011;6998;53.608;9.958;2022-07-18T14:41:07;3.55;;;3.10;;
13855;SDS011;6998;53.608;9.958;2022-07-18T14:43:34;3.42;;;2.92;;
13855;SDS011;6998;53.608;9.958;2022-07-18T14:46:00;3.33;;;3.03;;
13855;SDS011;6998;53.608;9.958;2022-07-18T14:48:27;5.53;;;3.47;;
13855;SDS011;6998;53.608;9.958;2022-07-18T14:50:55;3.20;;;2.90;;
13855;SDS011;6998;53.608;9.958;2022-07-18T14:53:22;3.75;;;2.80;;
13855;SDS011;6998;53.608;9.958;2022-07-18T14:55:49;4.75;;;3.20;;
13855;SDS011;6998;53.608;9.958;2022-07-18T14:58:16;3.42;;;3.13;;
13855;SDS011;6998;53.608;9.958;2022-07-18T15:00:42;3.55;;;2.75;;
13855;SDS011;6998;53.608;9.958;2022-07-18T15:03:09;3.22;;;2.92;;
13855;SDS011;6998;53.608;9.958;2022-07-18T15:05:36;3.13;;;2.83;;
13855;SDS011;6998;53.608;9.958;2022-07-18T15:08:04;3.30;;;3.00;;
13855;SDS011;6998;53.608;9.958;2022-07-18T15:10:31;2.90;;;2.70;;
13855;SDS011;6998;53.608;9.958;2022-07-18T15:12:58;3.13;;;2.83;;
13855;SDS011;6998;53.608;9.958;2022-07-18T15:15:25;3.30;;;3.00;;
13855;SDS011;6998;53.608;9.958;2022-07-18T15:17:51;2.85;;;2.65;;